createdAt,value
2018-06-11T00:00:58.094Z,16.80
2018-06-11T00:03:26.542Z,16.80
2018-06-11T00:05:54.982Z,16.80
2018-06-11T00:08:23.420Z,16.80
2018-06-11T00:10:51.846Z,16.80
2018-06-11T00:13:20.302Z,16.80
2018-06-11T00:15:48.743Z,16.70
2018-06-11T00:18:17.194Z,16.70
2018-06-11T00:20:45.650Z,16.70
2018-06-11T00:23:14.141Z,16.60
2018-06-11T00:25:42.592Z,16.60
2018-06-11T00:28:11.694Z,16.60
2018-06-11T00:30:40.142Z,16.60
2018-06-11T00:33:08.574Z,16.50
2018-06-11T00:35:37.010Z,16.50
2018-06-11T00:38:06.053Z,16.50
2018-06-11T00:40:34.496Z,16.50
2018-06-11T00:43:03.378Z,16.50
2018-06-11T00:45:31.811Z,16.40
2018-06-11T00:48:00.254Z,16.40
2018-06-11T00:50:28.706Z,16.40
2018-06-11T00:52:57.186Z,16.30
2018-06-11T00:55:35.577Z,16.30
2018-06-11T00:58:04.540Z,16.30
2018-06-11T01:00:32.990Z,16.30
2018-06-11T01:03:01.439Z,16.30
2018-06-11T01:05:30.151Z,16.20
2018-06-11T01:07:58.592Z,16.20
2018-06-11T01:10:27.047Z,16.10
2018-06-11T01:12:55.501Z,16.20
2018-06-11T01:15:23.933Z,16.10
2018-06-11T01:17:52.371Z,16.10
2018-06-11T01:20:20.892Z,16.10
2018-06-11T01:22:49.318Z,16.10
2018-06-11T01:25:17.819Z,16.10
2018-06-11T01:27:46.274Z,16.00
2018-06-11T01:30:14.736Z,16.00
2018-06-11T01:32:43.174Z,16.00
2018-06-11T01:35:11.623Z,16.00
2018-06-11T01:37:40.067Z,16.00
2018-06-11T01:40:08.525Z,16.00
2018-06-11T01:42:36.970Z,16.00
2018-06-11T01:45:05.448Z,16.00
2018-06-11T01:47:33.905Z,16.00
2018-06-11T01:50:02.368Z,16.00
2018-06-11T01:52:30.850Z,16.00
2018-06-11T01:54:59.329Z,15.90
2018-06-11T01:57:27.774Z,15.90
2018-06-11T01:59:56.222Z,15.90
2018-06-11T02:02:24.687Z,15.90
2018-06-11T02:04:53.144Z,15.90
2018-06-11T02:07:21.604Z,15.90
2018-06-11T02:09:50.045Z,16.00
2018-06-11T02:12:18.490Z,16.00
2018-06-11T02:14:46.945Z,16.10
2018-06-11T02:17:15.397Z,16.10
2018-06-11T02:19:43.866Z,16.10
2018-06-11T02:22:12.315Z,16.10
2018-06-11T02:24:40.778Z,16.20
2018-06-11T02:27:09.225Z,16.20
2018-06-11T02:29:37.678Z,16.30
2018-06-11T02:32:06.134Z,16.30
2018-06-11T02:34:34.574Z,16.40
2018-06-11T02:37:03.107Z,16.50
2018-06-11T02:39:31.570Z,16.50
2018-06-11T02:42:00.051Z,16.50
2018-06-11T02:44:28.575Z,16.60
2018-06-11T02:46:57.017Z,16.60
2018-06-11T02:49:25.480Z,16.60
2018-06-11T02:51:53.923Z,16.60
2018-06-11T02:54:22.369Z,16.70
2018-06-11T02:56:50.801Z,16.70
2018-06-11T02:59:19.270Z,16.70
2018-06-11T03:02:50.153Z,16.70
2018-06-11T03:05:18.594Z,16.70
2018-06-11T03:07:47.039Z,16.70
2018-06-11T03:10:15.481Z,16.80
2018-06-11T03:12:43.934Z,16.80
2018-06-11T03:15:12.362Z,16.80
2018-06-11T03:17:40.855Z,16.80
2018-06-11T03:20:09.306Z,16.80
2018-06-11T03:22:37.750Z,16.80
2018-06-11T03:25:06.443Z,16.80
2018-06-11T03:27:34.873Z,16.80
2018-06-11T03:30:03.340Z,16.80
2018-06-11T03:32:31.859Z,16.80
2018-06-11T03:35:00.322Z,16.80
2018-06-11T03:37:28.763Z,16.80
2018-06-11T03:39:57.230Z,16.80
2018-06-11T03:42:25.680Z,16.80
2018-06-11T03:44:54.160Z,16.80
2018-06-11T03:47:22.648Z,16.80
2018-06-11T03:49:51.115Z,16.80
2018-06-11T03:52:19.580Z,16.80
2018-06-11T03:54:48.047Z,16.80
2018-06-11T03:57:16.490Z,16.80
2018-06-11T03:59:44.942Z,16.80
2018-06-11T04:02:13.405Z,16.80
2018-06-11T04:04:41.839Z,16.80
2018-06-11T04:07:10.334Z,16.80
2018-06-11T04:09:38.786Z,16.70
2018-06-11T04:12:07.237Z,16.70
2018-06-11T04:14:35.674Z,16.80
2018-06-11T04:17:04.558Z,16.80
2018-06-11T04:19:33.068Z,16.80
2018-06-11T04:22:01.482Z,16.70
2018-06-11T04:24:30.794Z,16.70
2018-06-11T04:26:59.250Z,16.70
2018-06-11T04:29:27.690Z,16.70
2018-06-11T04:31:56.142Z,16.70
2018-06-11T04:34:24.586Z,16.70
2018-06-11T04:36:53.073Z,16.70
2018-06-11T04:39:21.518Z,16.70
2018-06-11T04:41:49.983Z,16.70
2018-06-11T04:44:18.417Z,16.70
2018-06-11T04:46:46.886Z,16.70
2018-06-11T04:49:15.329Z,16.70
2018-06-11T04:51:43.817Z,16.70
2018-06-11T04:54:12.261Z,16.70
2018-06-11T04:56:40.718Z,16.80
2018-06-11T04:59:09.152Z,16.70
2018-06-11T05:01:37.579Z,16.70
2018-06-11T05:04:06.515Z,16.70
2018-06-11T05:06:34.960Z,16.80
2018-06-11T05:09:03.819Z,16.90
2018-06-11T05:11:32.284Z,16.90
2018-06-11T05:14:00.736Z,16.90
2018-06-11T05:16:29.170Z,16.90
2018-06-11T05:18:57.631Z,17.00
2018-06-11T05:21:26.080Z,17.00
2018-06-11T05:23:54.546Z,17.10
2018-06-11T05:26:22.973Z,17.20
2018-06-11T05:28:51.466Z,17.30
2018-06-11T05:31:19.932Z,17.30
2018-06-11T05:33:48.410Z,17.40
2018-06-11T05:36:16.839Z,17.40
2018-06-11T05:38:45.314Z,17.40
2018-06-11T05:41:13.780Z,17.40
2018-06-11T05:43:42.243Z,17.50
2018-06-11T05:46:10.683Z,17.60
2018-06-11T05:48:39.149Z,17.60
2018-06-11T05:51:07.599Z,17.80
2018-06-11T05:53:36.046Z,18.00
2018-06-11T05:56:04.502Z,18.10
2018-06-11T05:58:32.922Z,18.20
2018-06-11T06:01:01.384Z,18.40
2018-06-11T06:03:29.821Z,18.50
2018-06-11T06:05:58.355Z,18.60
2018-06-11T06:08:26.787Z,18.70
2018-06-11T06:10:55.247Z,18.70
2018-06-11T06:13:23.684Z,18.70
2018-06-11T06:15:52.131Z,18.80
2018-06-11T06:18:20.563Z,18.70
2018-06-11T06:20:49.036Z,18.70
2018-06-11T06:23:17.490Z,18.70
2018-06-11T06:25:45.990Z,18.80
2018-06-11T06:28:14.426Z,18.70
2018-06-11T06:30:42.882Z,18.60
2018-06-11T06:33:11.351Z,18.60
2018-06-11T06:35:39.830Z,18.60
2018-06-11T06:38:08.277Z,18.50
2018-06-11T06:40:36.728Z,18.70
2018-06-11T06:43:05.181Z,19.20
2018-06-11T06:45:33.667Z,20.80
2018-06-11T06:48:02.121Z,21.80
2018-06-11T06:50:30.582Z,22.20
2018-06-11T06:52:59.006Z,22.80
2018-06-11T06:55:27.498Z,24.10
2018-06-11T06:57:55.944Z,25.20
2018-06-11T07:00:24.405Z,24.70
2018-06-11T07:02:52.837Z,24.50
2018-06-11T07:05:21.287Z,24.30
2018-06-11T07:07:49.742Z,24.00
2018-06-11T07:10:18.176Z,24.00
2018-06-11T07:12:46.647Z,24.10
2018-06-11T07:15:15.104Z,24.50
2018-06-11T07:17:43.591Z,25.30
2018-06-11T07:20:12.051Z,25.10
2018-06-11T07:22:40.507Z,24.50
2018-06-11T07:25:08.935Z,24.20
2018-06-11T07:27:37.437Z,24.00
2018-06-11T07:30:05.887Z,24.30
2018-06-11T07:32:34.379Z,23.80
2018-06-11T07:35:02.813Z,23.30
2018-06-11T07:37:31.311Z,23.20
2018-06-11T07:39:59.802Z,22.90
2018-06-11T07:42:28.630Z,22.70
2018-06-11T07:44:57.066Z,23.20
2018-06-11T07:47:25.503Z,23.50
2018-06-11T07:49:53.936Z,23.80
2018-06-11T07:52:22.387Z,23.80
2018-06-11T07:54:50.842Z,23.80
2018-06-11T07:57:19.285Z,23.90
2018-06-11T07:59:47.741Z,25.00
2018-06-11T08:02:16.177Z,27.20
2018-06-11T08:04:44.642Z,29.00
2018-06-11T08:07:13.074Z,31.00
2018-06-11T08:09:41.531Z,32.80
2018-06-11T08:12:09.998Z,34.00
2018-06-11T08:14:38.486Z,35.20
2018-06-11T08:17:06.926Z,36.60
2018-06-11T08:19:35.427Z,37.30
2018-06-11T08:22:03.889Z,38.30
2018-06-11T08:24:32.346Z,39.00
2018-06-11T08:27:00.807Z,39.30
2018-06-11T08:29:29.271Z,39.70
2018-06-11T08:31:57.733Z,39.80
2018-06-11T08:34:26.206Z,38.70
2018-06-11T08:36:54.653Z,38.10
2018-06-11T08:39:23.118Z,38.70
2018-06-11T08:41:51.562Z,39.40
2018-06-11T08:44:20.027Z,39.80
2018-06-11T08:46:48.887Z,40.20
2018-06-11T08:49:17.489Z,40.60
2018-06-11T08:51:45.950Z,40.70
2018-06-11T08:54:14.445Z,40.90
2018-06-11T08:56:42.896Z,41.10
2018-06-11T08:59:11.345Z,41.50
2018-06-11T09:01:39.802Z,41.70
2018-06-11T09:04:08.243Z,41.60
2018-06-11T09:06:36.726Z,41.50
2018-06-11T09:09:07.917Z,41.00
2018-06-11T09:11:36.600Z,40.60
2018-06-11T09:14:05.242Z,39.80
2018-06-11T09:16:33.742Z,38.70
2018-06-11T09:19:02.196Z,37.20
2018-06-11T09:21:30.680Z,36.10
2018-06-11T09:23:59.118Z,34.80
2018-06-11T09:26:27.575Z,33.90
2018-06-11T09:28:56.005Z,33.30
2018-06-11T09:31:24.460Z,32.70
2018-06-11T09:33:52.906Z,32.10
2018-06-11T09:36:21.376Z,31.30
2018-06-11T09:38:49.813Z,30.90
2018-06-11T09:41:18.235Z,30.70
2018-06-11T09:43:46.693Z,30.20
2018-06-11T09:46:15.132Z,29.90
2018-06-11T09:48:43.572Z,29.40
2018-06-11T09:51:12.028Z,29.00
2018-06-11T09:53:40.455Z,28.80
2018-06-11T09:56:08.910Z,28.10
2018-06-11T09:58:37.330Z,28.00
2018-06-11T10:01:05.783Z,27.90
2018-06-11T10:03:34.259Z,27.90
2018-06-11T10:06:02.691Z,27.80
2018-06-11T10:08:31.163Z,27.80
2018-06-11T10:10:59.606Z,27.90
2018-06-11T10:13:28.040Z,27.90
2018-06-11T10:15:56.478Z,27.80
2018-06-11T10:20:53.030Z,28.10
2018-06-11T10:23:21.471Z,28.00
2018-06-11T10:25:50.547Z,27.60
2018-06-11T10:28:18.999Z,27.20
2018-06-11T10:30:47.481Z,26.70
2018-06-11T10:33:15.927Z,26.60
2018-06-11T10:35:44.401Z,26.60
2018-06-11T10:38:12.849Z,26.80
2018-06-11T10:40:41.298Z,27.00
2018-06-11T10:43:09.744Z,26.90
2018-06-11T10:45:38.190Z,26.90
2018-06-11T10:48:06.642Z,26.80
2018-06-11T10:50:35.075Z,26.40
2018-06-11T10:53:03.557Z,26.20
2018-06-11T10:55:31.986Z,26.10
2018-06-11T10:58:00.489Z,26.00
2018-06-11T11:00:28.957Z,26.00
2018-06-11T11:02:57.410Z,25.80
2018-06-11T11:05:25.875Z,25.70
2018-06-11T11:07:54.347Z,25.70
2018-06-11T11:10:22.797Z,25.60
2018-06-11T11:12:51.292Z,25.40
2018-06-11T11:15:19.859Z,25.30
2018-06-11T11:17:48.294Z,25.30
2018-06-11T11:20:16.729Z,25.30
2018-06-11T11:22:45.190Z,25.20
2018-06-11T11:25:13.636Z,25.10
2018-06-11T11:27:42.063Z,25.00
2018-06-11T11:30:10.531Z,25.00
2018-06-11T11:32:38.984Z,24.80
2018-06-11T11:35:07.435Z,24.70
2018-06-11T11:37:35.967Z,24.80
2018-06-11T11:40:04.390Z,24.80
2018-06-11T11:42:32.846Z,24.60
2018-06-11T11:45:01.272Z,24.50
2018-06-11T11:47:29.720Z,24.50
2018-06-11T11:49:58.153Z,24.40
2018-06-11T11:52:26.579Z,24.50
2018-06-11T11:54:55.049Z,24.40
2018-06-11T11:57:23.495Z,24.40
2018-06-11T11:59:51.960Z,24.40
2018-06-11T12:02:20.399Z,24.50
2018-06-11T12:04:48.865Z,24.60
2018-06-11T12:07:17.315Z,24.60
2018-06-11T12:09:45.763Z,24.60
2018-06-11T12:12:14.198Z,24.60
2018-06-11T12:14:42.671Z,24.60
2018-06-11T12:17:11.123Z,24.50
2018-06-11T12:19:39.559Z,24.40
2018-06-11T12:22:08.001Z,24.50
2018-06-11T12:24:36.448Z,24.50
2018-06-11T12:27:04.890Z,24.50
2018-06-11T12:29:33.326Z,24.50
2018-06-11T12:32:01.778Z,24.50
2018-06-11T12:34:30.226Z,24.40
2018-06-11T12:36:58.750Z,24.30
2018-06-11T12:39:27.167Z,24.40
2018-06-11T12:41:55.611Z,24.40
2018-06-11T12:44:24.035Z,24.30
2018-06-11T12:46:52.458Z,24.30
2018-06-11T12:49:20.904Z,24.30
2018-06-11T12:51:49.324Z,24.20
2018-06-11T12:54:18.139Z,24.20
2018-06-11T12:56:46.580Z,24.10
2018-06-11T12:59:15.011Z,24.10
2018-06-11T13:01:43.457Z,24.10
2018-06-11T13:04:11.875Z,24.10
2018-06-11T13:06:40.318Z,24.10
2018-06-11T13:09:08.770Z,24.10
2018-06-11T13:11:37.214Z,24.10
2018-06-11T13:14:05.702Z,24.10
2018-06-11T13:16:34.161Z,24.10
2018-06-11T13:21:31.020Z,24.10
2018-06-11T13:23:59.483Z,24.10
2018-06-11T13:26:28.663Z,24.00
2018-06-11T13:28:57.129Z,23.90
2018-06-11T13:31:25.623Z,23.80
2018-06-11T13:33:54.066Z,23.80
2018-06-11T13:36:25.389Z,23.80
2018-06-11T13:38:55.091Z,23.90
2018-06-11T13:41:24.049Z,23.90
2018-06-11T13:43:54.223Z,23.90
2018-06-11T13:46:22.666Z,23.90
2018-06-11T13:48:51.111Z,23.90
2018-06-11T13:51:19.549Z,23.80
2018-06-11T13:53:47.969Z,23.80
2018-06-11T13:56:16.417Z,23.80
2018-06-11T13:58:44.868Z,23.70
2018-06-11T14:01:13.291Z,23.80
2018-06-11T14:03:41.755Z,23.70
2018-06-11T14:06:10.187Z,23.70
2018-06-11T14:08:38.632Z,23.70
2018-06-11T14:11:07.091Z,23.60
2018-06-11T14:13:35.549Z,23.50
2018-06-11T14:16:03.999Z,23.60
2018-06-11T14:18:32.442Z,23.60
2018-06-11T14:21:00.862Z,23.70
2018-06-11T14:23:29.299Z,23.80
2018-06-11T14:25:57.710Z,23.90
2018-06-11T14:28:26.121Z,23.80
2018-06-11T14:30:54.551Z,23.80
2018-06-11T14:33:23.032Z,23.80
2018-06-11T14:35:51.463Z,23.80
2018-06-11T14:38:19.899Z,24.00
2018-06-11T14:40:48.330Z,24.00
2018-06-11T14:43:16.775Z,24.20
2018-06-11T14:45:45.205Z,24.30
2018-06-11T14:48:13.642Z,24.20
2018-06-11T14:50:42.090Z,24.30
2018-06-11T14:53:10.522Z,24.30
2018-06-11T14:55:39.032Z,24.20
2018-06-11T14:58:07.591Z,24.20
2018-06-11T15:00:35.967Z,24.30
2018-06-11T15:03:04.386Z,24.30
2018-06-11T15:05:32.821Z,24.40
2018-06-11T15:08:04.344Z,24.40
2018-06-11T15:10:32.786Z,24.60
2018-06-11T15:13:01.220Z,24.70
2018-06-11T15:15:29.680Z,24.70
2018-06-11T15:17:58.090Z,24.70
2018-06-11T15:20:26.519Z,24.80
2018-06-11T15:22:54.941Z,24.80
2018-06-11T15:25:23.370Z,24.80
2018-06-11T15:27:51.809Z,24.80
2018-06-11T15:30:20.247Z,24.80
2018-06-11T15:32:48.662Z,24.70
2018-06-11T15:35:17.094Z,24.70
2018-06-11T15:37:45.531Z,24.60
2018-06-11T15:40:14.058Z,24.50
2018-06-11T15:42:42.483Z,24.50
2018-06-11T15:45:10.903Z,24.30
2018-06-11T15:47:39.400Z,24.30
2018-06-11T15:50:07.885Z,24.20
2018-06-11T15:52:36.283Z,24.20
2018-06-11T15:55:04.712Z,24.10
2018-06-11T16:00:01.282Z,24.00
2018-06-11T16:02:29.706Z,23.90
2018-06-11T16:04:58.125Z,23.90
2018-06-11T16:07:26.583Z,23.80
2018-06-11T16:09:55.006Z,23.80
2018-06-11T16:12:23.442Z,23.80
2018-06-11T16:14:51.883Z,23.80
2018-06-11T16:17:20.335Z,23.80
2018-06-11T16:19:48.765Z,23.80
2018-06-11T16:22:17.263Z,23.80
2018-06-11T16:24:45.715Z,23.80
2018-06-11T16:27:14.158Z,23.90
2018-06-11T16:29:42.695Z,23.90
2018-06-11T16:32:11.122Z,23.90
2018-06-11T16:34:43.184Z,23.90
2018-06-11T16:37:11.611Z,23.80
2018-06-11T16:39:40.088Z,23.80
2018-06-11T16:42:08.518Z,23.80
2018-06-11T16:44:36.969Z,23.70
2018-06-11T16:47:06.494Z,23.70
2018-06-11T16:49:38.850Z,23.70
2018-06-11T16:52:07.468Z,23.60
2018-06-11T16:54:39.543Z,23.60
2018-06-11T16:57:07.964Z,23.60
2018-06-11T16:59:36.392Z,23.50
2018-06-11T17:02:04.868Z,23.50
2018-06-11T17:04:33.318Z,23.40
2018-06-11T17:07:01.756Z,23.40
2018-06-11T17:09:30.221Z,23.40
2018-06-11T17:11:58.647Z,23.40
2018-06-11T17:14:27.119Z,23.30
2018-06-11T17:16:55.555Z,23.30
2018-06-11T17:19:24.021Z,23.30
2018-06-11T17:21:52.434Z,23.30
2018-06-11T17:24:21.483Z,23.20
2018-06-11T17:26:49.899Z,23.20
2018-06-11T17:29:18.363Z,23.20
2018-06-11T17:31:46.836Z,23.10
2018-06-11T17:34:15.290Z,22.90
2018-06-11T17:36:43.705Z,22.90
2018-06-11T17:39:12.126Z,22.80
2018-06-11T17:41:40.586Z,22.80
2018-06-11T17:44:09.036Z,22.80
2018-06-11T17:46:37.458Z,22.70
2018-06-11T17:49:05.890Z,22.70
2018-06-11T17:51:34.368Z,22.60
2018-06-11T17:54:02.766Z,22.60
2018-06-11T17:56:31.212Z,22.50
2018-06-11T17:58:59.653Z,22.50
2018-06-11T18:01:28.088Z,22.50
2018-06-11T18:03:56.527Z,22.50
2018-06-11T18:06:24.980Z,22.40
2018-06-11T18:08:53.399Z,22.40
2018-06-11T18:11:21.894Z,22.40
2018-06-11T18:13:50.319Z,22.30
2018-06-11T18:16:18.775Z,22.30
2018-06-11T18:18:47.203Z,22.20
2018-06-11T18:21:15.676Z,22.20
2018-06-11T18:23:44.110Z,22.10
2018-06-11T18:26:12.559Z,22.00
2018-06-11T18:28:40.991Z,21.90
2018-06-11T18:31:09.435Z,21.80
2018-06-11T18:33:37.869Z,21.80
2018-06-11T18:36:06.288Z,21.70
2018-06-11T18:38:34.712Z,21.60
2018-06-11T18:41:03.149Z,21.50
2018-06-11T18:43:31.599Z,21.50
2018-06-11T18:46:00.040Z,21.40
2018-06-11T18:48:28.486Z,21.40
2018-06-11T18:50:56.912Z,21.30
2018-06-11T18:53:25.332Z,21.20
2018-06-11T18:55:53.750Z,21.20
2018-06-11T18:58:22.191Z,21.20
2018-06-11T19:00:50.945Z,21.10
2018-06-11T19:03:19.422Z,21.10
2018-06-11T19:05:47.864Z,21.10
2018-06-11T19:08:16.298Z,21.00
2018-06-11T19:10:44.719Z,21.00
2018-06-11T19:13:13.210Z,20.90
2018-06-11T19:15:41.637Z,20.80
2018-06-11T19:18:10.094Z,20.80
2018-06-11T19:20:38.520Z,20.80
2018-06-11T19:23:06.988Z,20.70
2018-06-11T19:25:35.407Z,20.70
2018-06-11T19:28:03.874Z,20.60
2018-06-11T19:30:32.319Z,20.60
2018-06-11T19:33:00.844Z,20.50
2018-06-11T19:35:29.414Z,20.50
2018-06-11T19:37:58.304Z,20.50
2018-06-11T19:40:26.727Z,20.50
2018-06-11T19:42:55.182Z,20.50
2018-06-11T19:45:23.616Z,20.50
2018-06-11T19:47:52.070Z,20.50
2018-06-11T19:50:20.507Z,20.40
2018-06-11T19:52:48.963Z,20.40
2018-06-11T19:55:17.418Z,20.40
2018-06-11T19:57:45.853Z,20.40
2018-06-11T20:00:15.118Z,20.40
2018-06-11T20:02:43.586Z,20.40
2018-06-11T20:05:12.103Z,20.30
2018-06-11T20:07:40.546Z,20.30
2018-06-11T20:10:09.093Z,20.20
2018-06-11T20:12:37.526Z,20.20
2018-06-11T20:15:06.008Z,20.10
2018-06-11T20:17:34.444Z,20.10
2018-06-11T20:20:03.074Z,20.10
2018-06-11T20:22:31.501Z,20.10
2018-06-11T20:24:59.986Z,20.00
2018-06-11T20:27:28.415Z,20.00
2018-06-11T20:29:57.008Z,19.90
2018-06-11T20:32:25.489Z,19.90
2018-06-11T20:34:53.887Z,19.80
2018-06-11T20:37:22.340Z,19.80
2018-06-11T20:39:50.755Z,19.70
2018-06-11T20:42:19.195Z,19.70
2018-06-11T20:44:47.728Z,19.70
2018-06-11T20:47:16.194Z,19.60
2018-06-11T20:49:44.616Z,19.50
2018-06-11T20:52:13.155Z,19.40
2018-06-11T20:54:41.571Z,19.40
2018-06-11T20:57:10.031Z,19.30
2018-06-11T20:59:38.474Z,19.30
2018-06-11T21:02:06.946Z,19.20
2018-06-11T21:04:35.370Z,19.10
2018-06-11T21:07:04.424Z,19.00
2018-06-11T21:09:32.847Z,19.00
2018-06-11T21:12:01.298Z,18.90
2018-06-11T21:14:29.737Z,18.90
2018-06-11T21:16:58.189Z,18.80
2018-06-11T21:19:26.623Z,18.70
2018-06-11T21:21:55.086Z,18.60
2018-06-11T21:24:23.528Z,18.60
2018-06-11T21:26:51.997Z,18.50
2018-06-11T21:29:20.446Z,18.50
2018-06-11T21:31:48.870Z,18.50
2018-06-11T21:34:17.312Z,18.40
2018-06-11T21:36:45.763Z,18.40
2018-06-11T21:39:14.219Z,18.30
2018-06-11T21:41:42.652Z,18.30
2018-06-11T21:44:11.138Z,18.30
2018-06-11T21:46:39.581Z,18.20
2018-06-11T21:49:08.046Z,18.10
2018-06-11T21:51:36.497Z,18.10
2018-06-11T21:54:04.969Z,18.00
2018-06-11T21:56:33.461Z,18.00
2018-06-11T21:59:01.932Z,17.90
2018-06-11T22:01:30.377Z,17.90
2018-06-11T22:03:58.950Z,17.80
2018-06-11T22:06:27.322Z,17.80
2018-06-11T22:08:55.786Z,17.70
2018-06-11T22:11:24.250Z,17.70
2018-06-11T22:13:52.695Z,17.60
2018-06-11T22:16:21.147Z,17.60
2018-06-11T22:18:49.606Z,17.60
2018-06-11T22:21:18.072Z,17.60
2018-06-11T22:23:46.775Z,17.50
2018-06-11T22:26:15.255Z,17.40
2018-06-11T22:28:43.730Z,17.40
2018-06-11T22:31:12.168Z,17.40
2018-06-11T22:33:40.656Z,17.30
2018-06-11T22:36:09.081Z,17.30
2018-06-11T22:38:37.545Z,17.30
2018-06-11T22:41:05.985Z,17.30
2018-06-11T22:43:34.422Z,17.30
2018-06-11T22:46:02.895Z,17.20
2018-06-11T22:48:31.336Z,17.20
2018-06-11T22:50:59.767Z,17.20
2018-06-11T22:53:28.210Z,17.20
2018-06-11T22:55:56.633Z,17.20
2018-06-11T22:58:25.076Z,17.20
2018-06-11T23:00:53.534Z,17.20
2018-06-11T23:03:21.985Z,17.10
2018-06-11T23:05:50.422Z,17.10
2018-06-11T23:08:18.895Z,17.10
2018-06-11T23:10:47.391Z,17.10
2018-06-11T23:13:16.441Z,17.00
2018-06-11T23:15:44.943Z,17.00
2018-06-11T23:18:13.381Z,17.00
2018-06-11T23:20:41.859Z,17.00
2018-06-11T23:23:10.343Z,16.90
2018-06-11T23:25:38.834Z,16.90
2018-06-11T23:28:07.304Z,16.90
2018-06-11T23:30:35.846Z,16.90
2018-06-11T23:33:04.298Z,16.90
2018-06-11T23:35:32.785Z,16.80
2018-06-11T23:38:01.263Z,16.80
2018-06-11T23:40:29.754Z,16.80
2018-06-11T23:42:58.194Z,16.70
2018-06-11T23:45:26.717Z,16.70
2018-06-11T23:47:55.179Z,16.70
2018-06-11T23:50:23.651Z,16.70
2018-06-11T23:52:52.099Z,16.70
2018-06-11T23:55:20.570Z,16.70
2018-06-11T23:57:49.044Z,16.60
